Mega Smeralda — ICIU — position and weather

sailwx.info

Track history (hours):
 
Tides and Currents Weather Stations Pressure Air Temp Water Temp Dewpoint Dewpoint Depression Visibility Wind Speed Wind Dir Waves Ship Positions

Mega Smeralda

Last reported at 2016-Aug-27 07:33 UTC. Time now 2016-Aug-27 08:08 UTC.
Position N 43°09' E 009°25'.

Length 171 m; draft 6.5 m.

Type: Passenger vessel. MMSI: 247228600.

Date/timePositionNaut miles runAvg speedWind from/ knotsBaromVisibWave heightAir tempDewpointWater temp
2016-Aug-27 07:33N 43°09' E 009°25'2020.3
2016-Aug-27 06:33N 42°49' E 009°32'7 3.4
2016-Aug-27 04:33N 42°43' E 009°29'1515.4
2016-Aug-27 03:33N 42°58' E 009°32'1615.6
2016-Aug-27 02:34N 43°12' E 009°21'1615.5
2016-Aug-27 01:34N 43°25' E 009°11'1515.5
2016-Aug-27 00:34N 43°38' E 008°60'1515.3
2016-Aug-26 23:33N 43°52' E 008°49'1515.4
2016-Aug-26 22:33N 44°05' E 008°38'1413.7
2016-Aug-26 21:33N 44°16' E 008°27'0 0.1
2016-Aug-26 20:33N 44°16' E 008°27'3 2.8
2016-Aug-26 19:33N 44°15' E 008°31'1919.2
2016-Aug-26 18:33N 43°56' E 008°38'2020.2
2016-Aug-26 17:33N 43°37' E 008°44'2120.7
2016-Aug-26 16:33N 43°16' E 008°48'2120.5
2016-Aug-26 15:33N 42°56' E 008°53'1817.9
2016-Aug-26 14:34N 42°38' E 008°56'1 0.9
2016-Aug-26 13:33N 42°39' E 008°57'1919.1
2016-Aug-26 12:33N 42°43' E 008°31'2920.6
2016-Aug-26 11:09N 42°46' E 007°52'5420.2
2016-Aug-26 08:27N 42°52' E 006°39'3418.0
2016-Aug-26 06:34N 43°05' E 005°56'2 0.8
2016-Aug-26 04:33N 43°05' E 005°58'8514.1
2016-Aug-25 22:33N 42°17' E 007°33'1414.1
2016-Aug-25 21:32N 42°09' E 007°49'1814.2
2016-Aug-25 20:14N 41°60' E 008°10'2313.5
2016-Aug-25 18:31N 41°51' E 008°39'34 5.4
2016-Aug-25 12:10N 42°06' E 007°57'10518.3
2016-Aug-25 06:26N 43°04' E 005°58'1 0.3
2016-Aug-25 04:28N 43°04' E 005°58'8514.2
2016-Aug-24 22:28N 42°17' E 007°34'1314.4
2016-Aug-24 21:33N 42°10' E 007°49'7 0.7
2016-Aug-24 12:32N 42°13' E 007°41'4318.9
2016-Aug-24 10:16N 42°35' E 006°51'1419.1
2016-Aug-24 09:33N 42°43' E 006°36'3618.3
2016-Aug-24 07:33N 43°05' E 005°57'2 1.9
2016-Aug-24 06:33N 43°07' E 005°56'20 8.0
2016-Aug-24 04:05N 42°53' E 006°15'713.4
2016-Aug-24 03:34N 42°49' E 006°23'1313.1
2016-Aug-24 02:32N 42°42' E 006°38'3913.1
2016-Aug-23 23:33N 42°22' E 007°23'2013.1
2016-Aug-23 22:04N 42°11' E 007°45'1213.3
2016-Aug-23 21:11N 42°05' E 007°59'2413.3
2016-Aug-23 19:24N 41°52' E 008°26'13311.2
2016-Aug-23 07:34N 43°05' E 005°56'2 1.7
2016-Aug-23 06:32N 43°07' E 005°56'0 0.0
2016-Aug-23 05:32N 43°07' E 005°56'2211.1
2016-Aug-23 03:33N 42°52' E 006°18'1515.0
2016-Aug-23 02:33N 42°44' E 006°35'1515.1
2016-Aug-23 01:33N 42°36' E 006°52'1515.2
2016-Aug-23 00:33N 42°28' E 007°10'2215.2
2016-Aug-22 23:06N 42°16' E 007°35'27 3.5
2016-Aug-22 15:33N 42°02' E 008°06'11118.2
2016-Aug-22 09:27N 43°02' E 005°59'5 5.5
2016-Aug-22 08:32N 43°07' E 005°56'0 0.0
2016-Aug-22 07:32N 43°07' E 005°56'0 0.0
2016-Aug-22 06:32N 43°07' E 005°56'0 0.0
2016-Aug-22 05:32N 43°07' E 005°56'4012.0
2016-Aug-22 02:10N 42°57' E 006°49'1117.2
2016-Aug-22 01:33N 42°58' E 007°04'1616.3
2016-Aug-22 00:34N 42°52' E 007°24'1717.3
2016-Aug-21 23:33N 42°43' E 007°44'1717.5
2016-Aug-21 22:33N 42°31' E 008°01'61 5.4
2016-Aug-21 11:20N 42°42' E 006°40'3818.0
2016-Aug-21 09:14N 43°04' E 005°58'3 4.5
2016-Aug-21 08:33N 43°07' E 005°56'0 0.0
2016-Aug-21 07:33N 43°07' E 005°56'0 0.0
2016-Aug-21 06:33N 43°07' E 005°56'4711.6
2016-Aug-21 02:33N 42°58' E 006°58'1615.8
2016-Aug-21 01:33N 42°58' E 007°19'1615.7
2016-Aug-21 00:33N 42°59' E 007°41'1615.7
2016-Aug-20 23:33N 43°01' E 008°02'1615.6
2016-Aug-20 22:33N 43°03' E 008°23'1615.5
2016-Aug-20 21:33N 43°04' E 008°45'1515.4
2016-Aug-20 20:34N 43°04' E 009°06'1515.4
2016-Aug-20 19:33N 43°03' E 009°27'1714.7
2016-Aug-20 18:25N 42°47' E 009°32'6 2.9
2016-Aug-20 16:15N 42°42' E 009°27'1216.6
2016-Aug-20 15:34N 42°52' E 009°34'1919.3
2016-Aug-20 14:34N 43°09' E 009°46'2020.4
2016-Aug-20 13:34N 43°25' E 010°05'1312.2
2016-Aug-20 12:31N 43°33' E 010°18'0 0.0
2016-Aug-20 11:28N 43°33' E 010°18'1011.2
2016-Aug-20 10:34N 43°24' E 010°11'2019.6
2016-Aug-20 09:34N 43°06' E 010°01'1919.1
2016-Aug-20 08:33N 42°52' E 009°44'15 6.9
2016-Aug-20 06:20N 42°42' E 009°28'1417.6
2016-Aug-20 05:31N 42°56' E 009°31'1616.2
2016-Aug-20 04:33N 43°03' E 009°12'2020.0
2016-Aug-20 03:33N 43°02' E 008°44'2020.0
2016-Aug-20 02:33N 43°00' E 008°17'2020.1
2016-Aug-20 01:33N 42°60' E 007°50'2220.0
2016-Aug-20 00:28N 42°58' E 007°20'1820.1
2016-Aug-19 23:33N 42°57' E 006°55'1919.6
2016-Aug-19 22:33N 42°57' E 006°28'2318.6
2016-Aug-19 21:18N 43°04' E 005°58'3 4.1
2016-Aug-19 20:33N 43°07' E 005°56'0 0.0
2016-Aug-19 19:33N 43°07' E 005°56'1211.3
2016-Aug-19 18:27N 42°58' E 006°08'1819.5
2016-Aug-19 17:33N 42°54' E 006°31'2419.9
2016-Aug-19 16:20N 42°51' E 007°04'1519.9
2016-Aug-19 15:34N 42°49' E 007°25'2019.8
2016-Aug-19 14:34N 42°47' E 007°52'2019.8
2016-Aug-19 13:34N 42°44' E 008°18'2119.4
2016-Aug-19 12:29N 42°41' E 008°47'8 8.3
2016-Aug-19 11:33N 42°38' E 008°56'0 0.0
2016-Aug-19 10:33N 42°38' E 008°56'1514.3
2016-Aug-19 09:32N 42°53' E 008°54'5919.7
2016-Aug-19 06:33N 43°50' E 008°37'2020.3
2016-Aug-19 05:33N 44°10' E 008°31'7 6.4
2016-Aug-19 04:30N 44°16' E 008°27'2 2.2
2016-Aug-19 03:33N 44°15' E 008°30'1110.9
2016-Aug-19 02:33N 44°07' E 008°39'1211.6
2016-Aug-19 01:33N 43°57' E 008°47'1212.1
2016-Aug-19 00:33N 43°46' E 008°55'1212.0
2016-Aug-18 23:33N 43°36' E 009°03'1212.0
2016-Aug-18 22:33N 43°26' E 009°13'1212.0
2016-Aug-18 21:33N 43°15' E 009°20'1212.0
2016-Aug-18 20:33N 43°04' E 009°28'7 1.3
2016-Aug-18 15:28N 43°10' E 009°23'1919.9
2016-Aug-18 14:31N 43°26' E 009°10'1919.9
2016-Aug-18 13:33N 43°43' E 008°56'2019.8
2016-Aug-18 12:33N 43°60' E 008°42'1919.4
2016-Aug-18 11:34N 44°16' E 008°28'1 0.6
2016-Aug-18 10:28N 44°16' E 008°27'0 0.0
2016-Aug-18 09:31N 44°16' E 008°27'0 0.0
2016-Aug-18 08:28N 44°16' E 008°27'0 0.0
2016-Aug-18 07:31N 44°16' E 008°27'0 0.0
2016-Aug-18 06:31N 44°16' E 008°27'0 0.0
2016-Aug-18 05:31N 44°16' E 008°27'8 8.0
2016-Aug-18 04:34N 44°11' E 008°35'1616.1
2016-Aug-18 03:34N 43°58' E 008°47'1616.2
2016-Aug-18 02:34N 43°43' E 008°58'1716.6
2016-Aug-18 01:33N 43°29' E 009°09'1716.6
2016-Aug-18 00:34N 43°14' E 009°20'29 6.5
2016-Aug-17 20:06N 42°54' E 009°48'1120.3
2016-Aug-17 19:33N 43°01' E 009°58'2120.7
2016-Aug-17 18:33N 43°21' E 010°08'1414.3
2016-Aug-17 17:33N 43°33' E 010°18'0 0.1
2016-Aug-17 16:30N 43°33' E 010°18'8 8.4
2016-Aug-17 15:34N 43°26' E 010°12'2019.7
2016-Aug-17 14:33N 43°08' E 010°02'24 5.5
2016-Aug-17 10:10N 43°01' E 009°30'1219.4
2016-Aug-17 09:33N 43°11' E 009°22'2020.0
2016-Aug-17 08:33N 43°28' E 009°08'2019.6
2016-Aug-17 07:33N 43°45' E 008°54'  
Track history (hours):
 
Tides and Currents Weather Stations Pressure Air Temp Water Temp Dewpoint Dewpoint Depression Visibility Wind Speed Wind Dir Waves Ship Positions

Mega Smeralda

Last reported at 2016-Aug-27 07:33 UTC. Time now 2016-Aug-27 08:08 UTC.
Position N 43°09' E 009°25'.

Length 171 m; draft 6.5 m.

Type: Passenger vessel. MMSI: 247228600.

Date/timePositionNaut miles runAvg speedWind from/ knotsBaromVisibWave heightAir tempDewpointWater temp
2016-Aug-27 07:33N 43°09' E 009°25'2020.3
2016-Aug-27 06:33N 42°49' E 009°32'7 3.4
2016-Aug-27 04:33N 42°43' E 009°29'1515.4
2016-Aug-27 03:33N 42°58' E 009°32'1615.6
2016-Aug-27 02:34N 43°12' E 009°21'1615.5
2016-Aug-27 01:34N 43°25' E 009°11'1515.5
2016-Aug-27 00:34N 43°38' E 008°60'1515.3
2016-Aug-26 23:33N 43°52' E 008°49'1515.4
2016-Aug-26 22:33N 44°05' E 008°38'1413.7
2016-Aug-26 21:33N 44°16' E 008°27'0 0.1
2016-Aug-26 20:33N 44°16' E 008°27'3 2.8
2016-Aug-26 19:33N 44°15' E 008°31'1919.2
2016-Aug-26 18:33N 43°56' E 008°38'2020.2
2016-Aug-26 17:33N 43°37' E 008°44'2120.7
2016-Aug-26 16:33N 43°16' E 008°48'2120.5
2016-Aug-26 15:33N 42°56' E 008°53'1817.9
2016-Aug-26 14:34N 42°38' E 008°56'1 0.9
2016-Aug-26 13:33N 42°39' E 008°57'1919.1
2016-Aug-26 12:33N 42°43' E 008°31'2920.6
2016-Aug-26 11:09N 42°46' E 007°52'5420.2
2016-Aug-26 08:27N 42°52' E 006°39'3418.0
2016-Aug-26 06:34N 43°05' E 005°56'2 0.8
2016-Aug-26 04:33N 43°05' E 005°58'8514.1
2016-Aug-25 22:33N 42°17' E 007°33'1414.1
2016-Aug-25 21:32N 42°09' E 007°49'1814.2
2016-Aug-25 20:14N 41°60' E 008°10'2313.5
2016-Aug-25 18:31N 41°51' E 008°39'34 5.4
2016-Aug-25 12:10N 42°06' E 007°57'10518.3
2016-Aug-25 06:26N 43°04' E 005°58'1 0.3
2016-Aug-25 04:28N 43°04' E 005°58'8514.2
2016-Aug-24 22:28N 42°17' E 007°34'1314.4
2016-Aug-24 21:33N 42°10' E 007°49'7 0.7
2016-Aug-24 12:32N 42°13' E 007°41'4318.9
2016-Aug-24 10:16N 42°35' E 006°51'1419.1
2016-Aug-24 09:33N 42°43' E 006°36'3618.3
2016-Aug-24 07:33N 43°05' E 005°57'2 1.9
2016-Aug-24 06:33N 43°07' E 005°56'20 8.0
2016-Aug-24 04:05N 42°53' E 006°15'713.4
2016-Aug-24 03:34N 42°49' E 006°23'1313.1
2016-Aug-24 02:32N 42°42' E 006°38'3913.1
2016-Aug-23 23:33N 42°22' E 007°23'2013.1
2016-Aug-23 22:04N 42°11' E 007°45'1213.3
2016-Aug-23 21:11N 42°05' E 007°59'2413.3
2016-Aug-23 19:24N 41°52' E 008°26'13311.2
2016-Aug-23 07:34N 43°05' E 005°56'2 1.7
2016-Aug-23 06:32N 43°07' E 005°56'0 0.0
2016-Aug-23 05:32N 43°07' E 005°56'2211.1
2016-Aug-23 03:33N 42°52' E 006°18'1515.0
2016-Aug-23 02:33N 42°44' E 006°35'1515.1
2016-Aug-23 01:33N 42°36' E 006°52'1515.2
2016-Aug-23 00:33N 42°28' E 007°10'2215.2
2016-Aug-22 23:06N 42°16' E 007°35'27 3.5
2016-Aug-22 15:33N 42°02' E 008°06'11118.2
2016-Aug-22 09:27N 43°02' E 005°59'5 5.5
2016-Aug-22 08:32N 43°07' E 005°56'0 0.0
2016-Aug-22 07:32N 43°07' E 005°56'0 0.0
2016-Aug-22 06:32N 43°07' E 005°56'0 0.0
2016-Aug-22 05:32N 43°07' E 005°56'4012.0
2016-Aug-22 02:10N 42°57' E 006°49'1117.2
2016-Aug-22 01:33N 42°58' E 007°04'1616.3
2016-Aug-22 00:34N 42°52' E 007°24'1717.3
2016-Aug-21 23:33N 42°43' E 007°44'1717.5
2016-Aug-21 22:33N 42°31' E 008°01'61 5.4
2016-Aug-21 11:20N 42°42' E 006°40'3818.0
2016-Aug-21 09:14N 43°04' E 005°58'3 4.5
2016-Aug-21 08:33N 43°07' E 005°56'0 0.0
2016-Aug-21 07:33N 43°07' E 005°56'0 0.0
2016-Aug-21 06:33N 43°07' E 005°56'4711.6
2016-Aug-21 02:33N 42°58' E 006°58'1615.8
2016-Aug-21 01:33N 42°58' E 007°19'1615.7
2016-Aug-21 00:33N 42°59' E 007°41'1615.7
2016-Aug-20 23:33N 43°01' E 008°02'1615.6
2016-Aug-20 22:33N 43°03' E 008°23'1615.5
2016-Aug-20 21:33N 43°04' E 008°45'1515.4
2016-Aug-20 20:34N 43°04' E 009°06'1515.4
2016-Aug-20 19:33N 43°03' E 009°27'1714.7
2016-Aug-20 18:25N 42°47' E 009°32'6 2.9
2016-Aug-20 16:15N 42°42' E 009°27'1216.6
2016-Aug-20 15:34N 42°52' E 009°34'1919.3
2016-Aug-20 14:34N 43°09' E 009°46'2020.4
2016-Aug-20 13:34N 43°25' E 010°05'1312.2
2016-Aug-20 12:31N 43°33' E 010°18'0 0.0
2016-Aug-20 11:28N 43°33' E 010°18'1011.2
2016-Aug-20 10:34N 43°24' E 010°11'2019.6
2016-Aug-20 09:34N 43°06' E 010°01'1919.1
2016-Aug-20 08:33N 42°52' E 009°44'15 6.9
2016-Aug-20 06:20N 42°42' E 009°28'1417.6
2016-Aug-20 05:31N 42°56' E 009°31'1616.2
2016-Aug-20 04:33N 43°03' E 009°12'2020.0
2016-Aug-20 03:33N 43°02' E 008°44'2020.0
2016-Aug-20 02:33N 43°00' E 008°17'2020.1
2016-Aug-20 01:33N 42°60' E 007°50'2220.0
2016-Aug-20 00:28N 42°58' E 007°20'1820.1
2016-Aug-19 23:33N 42°57' E 006°55'1919.6
2016-Aug-19 22:33N 42°57' E 006°28'2318.6
2016-Aug-19 21:18N 43°04' E 005°58'3 4.1
2016-Aug-19 20:33N 43°07' E 005°56'0 0.0
2016-Aug-19 19:33N 43°07' E 005°56'1211.3
2016-Aug-19 18:27N 42°58' E 006°08'1819.5
2016-Aug-19 17:33N 42°54' E 006°31'2419.9
2016-Aug-19 16:20N 42°51' E 007°04'1519.9
2016-Aug-19 15:34N 42°49' E 007°25'2019.8
2016-Aug-19 14:34N 42°47' E 007°52'2019.8
2016-Aug-19 13:34N 42°44' E 008°18'2119.4
2016-Aug-19 12:29N 42°41' E 008°47'8 8.3
2016-Aug-19 11:33N 42°38' E 008°56'0 0.0
2016-Aug-19 10:33N 42°38' E 008°56'1514.3
2016-Aug-19 09:32N 42°53' E 008°54'5919.7
2016-Aug-19 06:33N 43°50' E 008°37'2020.3
2016-Aug-19 05:33N 44°10' E 008°31'7 6.4
2016-Aug-19 04:30N 44°16' E 008°27'2 2.2
2016-Aug-19 03:33N 44°15' E 008°30'1110.9
2016-Aug-19 02:33N 44°07' E 008°39'1211.6
2016-Aug-19 01:33N 43°57' E 008°47'1212.1
2016-Aug-19 00:33N 43°46' E 008°55'1212.0
2016-Aug-18 23:33N 43°36' E 009°03'1212.0
2016-Aug-18 22:33N 43°26' E 009°13'1212.0
2016-Aug-18 21:33N 43°15' E 009°20'1212.0
2016-Aug-18 20:33N 43°04' E 009°28'7 1.3
2016-Aug-18 15:28N 43°10' E 009°23'1919.9
2016-Aug-18 14:31N 43°26' E 009°10'1919.9
2016-Aug-18 13:33N 43°43' E 008°56'2019.8
2016-Aug-18 12:33N 43°60' E 008°42'1919.4
2016-Aug-18 11:34N 44°16' E 008°28'1 0.6
2016-Aug-18 10:28N 44°16' E 008°27'0 0.0
2016-Aug-18 09:31N 44°16' E 008°27'0 0.0
2016-Aug-18 08:28N 44°16' E 008°27'0 0.0
2016-Aug-18 07:31N 44°16' E 008°27'0 0.0
2016-Aug-18 06:31N 44°16' E 008°27'0 0.0
2016-Aug-18 05:31N 44°16' E 008°27'8 8.0
2016-Aug-18 04:34N 44°11' E 008°35'1616.1
2016-Aug-18 03:34N 43°58' E 008°47'1616.2
2016-Aug-18 02:34N 43°43' E 008°58'1716.6
2016-Aug-18 01:33N 43°29' E 009°09'1716.6
2016-Aug-18 00:34N 43°14' E 009°20'29 6.5
2016-Aug-17 20:06N 42°54' E 009°48'1120.3
2016-Aug-17 19:33N 43°01' E 009°58'2120.7
2016-Aug-17 18:33N 43°21' E 010°08'1414.3
2016-Aug-17 17:33N 43°33' E 010°18'0 0.1
2016-Aug-17 16:30N 43°33' E 010°18'8 8.4
2016-Aug-17 15:34N 43°26' E 010°12'2019.7
2016-Aug-17 14:33N 43°08' E 010°02'24 5.5
2016-Aug-17 10:10N 43°01' E 009°30'1219.4
2016-Aug-17 09:33N 43°11' E 009°22'2020.0
2016-Aug-17 08:33N 43°28' E 009°08'2019.6
2016-Aug-17 07:33N 43°45' E 008°54'  

Dump ship's entire track history